createdAt,value
2019-04-20T00:01:07.476Z,53.80
2019-04-20T00:03:41.283Z,53.10
2019-04-20T00:06:06.991Z,53.10
2019-04-20T00:08:38.233Z,53.20
2019-04-20T00:11:11.690Z,53.10
2019-04-20T00:13:45.418Z,53.60
2019-04-20T00:16:06.223Z,52.90
2019-04-20T00:18:43.160Z,52.90
2019-04-20T00:21:24.670Z,53.00
2019-04-20T00:23:54.760Z,53.00
2019-04-20T00:26:59.598Z,53.10
2019-04-20T00:29:17.668Z,53.10
2019-04-20T00:31:42.776Z,53.10
2019-04-20T00:34:08.012Z,53.10
2019-04-20T00:36:28.999Z,53.10
2019-04-20T00:39:01.385Z,53.10
2019-04-20T00:41:27.820Z,53.10
2019-04-20T00:43:57.745Z,53.10
2019-04-20T00:46:33.976Z,53.00
2019-04-20T00:49:08.872Z,53.10
2019-04-20T00:51:39.521Z,53.10
2019-04-20T00:53:58.779Z,53.00
2019-04-20T00:56:26.635Z,53.10
2019-04-20T00:59:09.280Z,53.10
2019-04-20T01:01:45.688Z,53.20
2019-04-20T01:04:17.542Z,53.10
2019-04-20T01:06:43.812Z,53.10
2019-04-20T01:09:01.654Z,53.00
2019-04-20T01:11:36.423Z,53.10
2019-04-20T01:14:04.475Z,53.10
2019-04-20T01:16:41.239Z,53.10
2019-04-20T01:19:00.577Z,53.10
2019-04-20T01:21:31.789Z,53.10
2019-04-20T01:24:02.905Z,53.00
2019-04-20T01:26:29.445Z,53.10
2019-04-20T01:29:09.038Z,53.10
2019-04-20T01:31:36.432Z,52.90
2019-04-20T01:34:06.244Z,53.00
2019-04-20T01:36:45.743Z,52.90
2019-04-20T01:39:12.223Z,53.10
2019-04-20T01:41:28.573Z,52.90
2019-04-20T01:43:56.994Z,53.00
2019-04-20T01:46:28.375Z,53.00
2019-04-20T01:49:00.160Z,52.90
2019-04-20T01:51:30.470Z,53.00
2019-04-20T01:54:11.778Z,53.00
2019-04-20T01:56:40.338Z,53.10
2019-04-20T01:59:23.009Z,53.00
2019-04-20T02:01:59.287Z,53.00
2019-04-20T02:04:37.288Z,53.00
2019-04-20T02:07:03.309Z,53.10
2019-04-20T02:09:32.633Z,53.10
2019-04-20T02:12:09.297Z,53.00
2019-04-20T02:14:40.051Z,53.00
2019-04-20T02:17:09.575Z,53.10
2019-04-20T02:19:49.229Z,52.90
2019-04-20T02:22:13.322Z,53.00
2019-04-20T02:24:32.044Z,52.90
2019-04-20T02:27:00.402Z,52.90
2019-04-20T02:29:57.052Z,52.90
2019-04-20T02:35:08.575Z,52.30
2019-04-20T02:37:52.353Z,52.10
2019-04-20T02:40:09.143Z,50.20
2019-04-20T02:42:44.636Z,48.70
2019-04-20T02:45:18.708Z,47.20
2019-04-20T02:47:47.402Z,46.10
2019-04-20T02:50:15.122Z,44.30
2019-04-20T02:55:14.409Z,42.10
2019-04-20T02:57:47.837Z,42.00
2019-04-20T03:00:17.845Z,42.60
2019-04-20T03:02:23.681Z,42.40
2019-04-20T03:04:45.803Z,42.50
2019-04-20T03:07:25.085Z,41.80
2019-04-20T03:09:58.505Z,41.90
2019-04-20T03:12:33.389Z,42.00
2019-04-20T03:14:54.028Z,42.40
2019-04-20T03:17:36.506Z,42.70
2019-04-20T03:19:54.981Z,42.50
2019-04-20T03:22:39.565Z,42.70
2019-04-20T03:25:05.135Z,42.90
2019-04-20T03:27:29.249Z,43.30
2019-04-20T03:31:05.699Z,43.60
2019-04-20T03:33:21.118Z,44.10
2019-04-20T03:37:55.334Z,44.40
2019-04-20T03:40:19.322Z,44.60
2019-04-20T03:42:33.029Z,44.80
2019-04-20T03:45:07.637Z,45.30
2019-04-20T03:47:42.553Z,46.00
2019-04-20T03:50:24.439Z,45.40
2019-04-20T03:53:04.168Z,45.90
2019-04-20T03:55:39.713Z,45.70
2019-04-20T03:58:14.315Z,46.20
2019-04-20T04:00:45.771Z,46.30
2019-04-20T04:03:41.020Z,46.40
2019-04-20T04:06:00.842Z,46.50
2019-04-20T04:08:26.607Z,46.90
2019-04-20T04:11:01.485Z,47.00
2019-04-20T04:13:18.748Z,46.90
2019-04-20T04:15:54.556Z,47.10
2019-04-20T04:18:26.045Z,47.20
2019-04-20T04:20:54.127Z,47.20
2019-04-20T04:23:38.116Z,47.40
2019-04-20T04:26:14.712Z,47.50
2019-04-20T04:28:37.179Z,47.40
2019-04-20T04:31:09.014Z,47.60
2019-04-20T04:36:08.900Z,47.70
2019-04-20T04:38:41.916Z,47.70
2019-04-20T04:41:19.667Z,48.30
2019-04-20T04:43:37.235Z,48.00
2019-04-20T04:45:48.866Z,47.70
2019-04-20T04:48:23.565Z,47.90
2019-04-20T04:50:54.528Z,47.60
2019-04-20T04:53:30.392Z,47.90
2019-04-20T04:55:54.680Z,48.00
2019-04-20T04:58:17.491Z,48.20
2019-04-20T05:00:46.764Z,48.40
2019-04-20T05:03:35.365Z,48.30
2019-04-20T05:06:06.673Z,48.40
2019-04-20T05:08:27.432Z,48.30
2019-04-20T05:10:50.105Z,48.40
2019-04-20T05:13:19.926Z,48.50
2019-04-20T05:16:00.435Z,48.60
2019-04-20T05:18:45.144Z,48.50
2019-04-20T05:21:10.808Z,48.60
2019-04-20T05:23:35.333Z,48.50
2019-04-20T05:26:18.344Z,48.60
2019-04-20T05:28:39.760Z,48.40
2019-04-20T05:31:00.992Z,48.40
2019-04-20T05:33:42.503Z,48.20
2019-04-20T05:36:17.590Z,48.10
2019-04-20T05:38:49.932Z,47.90
2019-04-20T05:41:20.138Z,47.70
2019-04-20T05:43:56.321Z,47.60
2019-04-20T05:46:26.180Z,47.20
2019-04-20T05:48:57.881Z,47.30
2019-04-20T05:51:32.173Z,48.40
2019-04-20T05:53:59.080Z,49.80
2019-04-20T05:56:30.750Z,49.40
2019-04-20T05:58:56.818Z,49.00
2019-04-20T06:01:36.325Z,48.20
2019-04-20T06:03:56.819Z,46.10
2019-04-20T06:06:27.435Z,47.10
2019-04-20T06:09:02.389Z,46.30
2019-04-20T06:11:28.210Z,43.30
2019-04-20T06:13:50.580Z,44.10
2019-04-20T06:16:40.374Z,45.70
2019-04-20T06:19:18.742Z,46.00
2019-04-20T06:22:00.989Z,46.00
2019-04-20T06:24:37.812Z,47.50
2019-04-20T06:27:16.027Z,46.60
2019-04-20T06:29:31.213Z,45.40
2019-04-20T06:32:05.141Z,42.80
2019-04-20T06:36:58.381Z,41.10
2019-04-20T06:39:49.114Z,40.30
2019-04-20T06:44:34.289Z,37.80
2019-04-20T06:47:08.997Z,37.10
2019-04-20T06:49:35.514Z,35.70
2019-04-20T06:55:05.530Z,36.80
2019-04-20T06:57:40.357Z,36.60
2019-04-20T07:00:14.170Z,37.80
2019-04-20T07:02:41.503Z,38.30
2019-04-20T07:07:41.876Z,39.80
2019-04-20T07:10:16.355Z,40.60
2019-04-20T07:12:35.587Z,40.40
2019-04-20T07:14:55.429Z,40.90
2019-04-20T07:17:54.737Z,41.40
2019-04-20T07:20:18.438Z,42.30
2019-04-20T07:25:39.044Z,43.40
2019-04-20T07:28:05.890Z,44.10
2019-04-20T07:30:37.324Z,43.90
2019-04-20T07:33:08.737Z,44.00
2019-04-20T07:35:35.674Z,44.00
2019-04-20T07:40:30.175Z,43.10
2019-04-20T07:43:17.157Z,43.10
2019-04-20T07:50:25.227Z,43.80
2019-04-20T07:52:54.422Z,44.20
2019-04-20T07:55:39.067Z,44.40
2019-04-20T07:57:57.519Z,44.40
2019-04-20T08:00:46.655Z,44.80
2019-04-20T08:03:29.633Z,44.80
2019-04-20T08:05:47.009Z,44.40
2019-04-20T08:08:25.344Z,45.10
2019-04-20T08:10:51.913Z,45.30
2019-04-20T08:13:35.437Z,45.40
2019-04-20T08:15:57.172Z,45.60
2019-04-20T08:18:27.820Z,45.60
2019-04-20T08:20:57.686Z,45.70
2019-04-20T08:23:23.223Z,46.40
2019-04-20T08:25:46.788Z,46.80
2019-04-20T08:28:16.728Z,46.50
2019-04-20T08:30:57.205Z,46.70
2019-04-20T08:33:30.930Z,47.40
2019-04-20T08:36:09.169Z,47.10
2019-04-20T08:39:01.278Z,47.00
2019-04-20T08:40:57.472Z,47.10
2019-04-20T08:43:43.720Z,47.00
2019-04-20T08:46:05.270Z,47.20
2019-04-20T08:48:32.894Z,47.10
2019-04-20T08:51:03.478Z,47.60
2019-04-20T08:53:36.859Z,47.60
2019-04-20T08:55:55.343Z,47.90
2019-04-20T08:58:13.721Z,47.90
2019-04-20T09:00:48.641Z,48.00
2019-04-20T09:03:17.978Z,50.70
2019-04-20T09:05:52.204Z,50.20
2019-04-20T09:08:18.879Z,49.50
2019-04-20T09:10:59.824Z,49.30
2019-04-20T09:13:21.056Z,49.00
2019-04-20T09:15:42.576Z,48.60
2019-04-20T09:18:24.175Z,48.60
2019-04-20T09:20:52.911Z,49.00
2019-04-20T09:23:35.085Z,49.20
2019-04-20T09:26:04.768Z,49.50
2019-04-20T09:28:28.454Z,49.60
2019-04-20T09:31:09.220Z,49.70
2019-04-20T09:33:54.139Z,49.80
2019-04-20T09:36:23.957Z,49.90
2019-04-20T09:39:10.405Z,49.90
2019-04-20T09:41:56.497Z,50.00
2019-04-20T09:44:00.403Z,50.00
2019-04-20T09:46:30.924Z,50.30
2019-04-20T09:49:02.750Z,50.90
2019-04-20T09:51:46.249Z,50.20
2019-04-20T09:54:17.566Z,50.40
2019-04-20T09:56:49.672Z,50.10
2019-04-20T09:59:16.406Z,50.20
2019-04-20T10:01:36.511Z,50.10
2019-04-20T10:03:59.285Z,50.10
2019-04-20T10:06:30.725Z,50.20
2019-04-20T10:09:00.457Z,50.90
2019-04-20T10:11:27.998Z,50.20
2019-04-20T10:13:56.493Z,50.20
2019-04-20T10:16:26.017Z,50.20
2019-04-20T10:18:55.307Z,50.20
2019-04-20T10:21:23.990Z,50.10
2019-04-20T10:23:52.568Z,49.70
2019-04-20T10:26:20.990Z,49.80
2019-04-20T10:28:49.790Z,50.20
2019-04-20T10:31:18.190Z,49.90
2019-04-20T10:33:46.445Z,49.90
2019-04-20T10:36:22.109Z,50.30
2019-04-20T10:38:50.696Z,50.40
2019-04-20T10:41:29.739Z,50.10
2019-04-20T10:43:49.065Z,50.00
2019-04-20T10:46:17.424Z,50.10
2019-04-20T10:48:49.177Z,50.20
2019-04-20T10:51:15.686Z,50.30
2019-04-20T10:53:44.514Z,50.30
2019-04-20T10:56:13.612Z,50.90
2019-04-20T10:58:43.304Z,50.80
2019-04-20T11:01:11.671Z,50.80
2019-04-20T11:03:40.731Z,50.70
2019-04-20T11:06:09.074Z,50.80
2019-04-20T11:08:38.348Z,50.90
2019-04-20T11:11:12.694Z,52.40
2019-04-20T11:13:37.454Z,51.60
2019-04-20T11:16:06.425Z,51.80
2019-04-20T11:18:35.501Z,52.80
2019-04-20T11:21:04.036Z,51.80
2019-04-20T11:23:32.287Z,51.60
2019-04-20T11:26:00.558Z,51.10
2019-04-20T11:28:30.198Z,50.90
2019-04-20T11:30:58.596Z,50.60
2019-04-20T11:33:27.843Z,50.60
2019-04-20T11:35:57.098Z,50.50
2019-04-20T11:38:26.109Z,50.50
2019-04-20T11:41:04.167Z,50.60
2019-04-20T11:43:25.976Z,50.60
2019-04-20T11:45:54.580Z,50.50
2019-04-20T11:48:23.348Z,50.50
2019-04-20T11:50:51.733Z,50.50
2019-04-20T11:53:21.452Z,50.50
2019-04-20T11:55:49.937Z,50.50
2019-04-20T11:58:18.205Z,50.70
2019-04-20T12:00:56.046Z,50.70
2019-04-20T12:03:28.159Z,50.60
2019-04-20T12:05:53.824Z,50.70
2019-04-20T12:08:20.786Z,50.70
2019-04-20T12:10:54.101Z,50.80
2019-04-20T12:13:20.444Z,50.70
2019-04-20T12:15:49.703Z,50.80
2019-04-20T12:18:18.126Z,50.80
2019-04-20T12:20:47.073Z,50.90
2019-04-20T12:23:16.056Z,50.90
2019-04-20T12:25:45.006Z,50.90
2019-04-20T12:28:15.750Z,50.90
2019-04-20T12:30:44.234Z,51.00
2019-04-20T12:33:13.622Z,50.90
2019-04-20T12:35:42.544Z,51.00
2019-04-20T12:38:10.985Z,50.80
2019-04-20T12:40:39.928Z,50.90
2019-04-20T12:43:08.989Z,50.90
2019-04-20T12:45:37.806Z,50.80
2019-04-20T12:48:06.323Z,50.80
2019-04-20T12:50:35.285Z,50.90
2019-04-20T12:53:04.471Z,50.80
2019-04-20T12:55:32.854Z,50.90
2019-04-20T12:58:01.117Z,50.80
2019-04-20T13:00:49.615Z,50.90
2019-04-20T13:03:17.677Z,50.90
2019-04-20T13:05:45.935Z,50.80
2019-04-20T13:08:23.242Z,51.00
2019-04-20T13:10:46.564Z,50.80
2019-04-20T13:13:28.723Z,50.90
2019-04-20T13:16:08.218Z,51.00
2019-04-20T13:18:45.448Z,51.00
2019-04-20T13:21:13.805Z,50.90
2019-04-20T13:23:42.785Z,51.60
2019-04-20T13:26:12.652Z,51.00
2019-04-20T13:28:41.310Z,51.00
2019-04-20T13:31:09.699Z,51.00
2019-04-20T13:33:39.067Z,51.00
2019-04-20T13:36:08.145Z,51.00
2019-04-20T13:38:38.200Z,51.00
2019-04-20T13:41:06.551Z,51.00
2019-04-20T13:43:35.527Z,51.00
2019-04-20T13:46:04.952Z,51.00
2019-04-20T13:48:33.284Z,51.00
2019-04-20T13:51:02.391Z,51.00
2019-04-20T13:53:30.859Z,51.00
2019-04-20T13:55:59.293Z,51.10
2019-04-20T13:58:45.705Z,51.40
2019-04-20T14:01:16.856Z,51.00
2019-04-20T14:03:47.133Z,51.20
2019-04-20T14:06:16.569Z,51.10
2019-04-20T14:08:45.427Z,51.20
2019-04-20T14:11:13.726Z,51.10
2019-04-20T14:13:47.209Z,51.20
2019-04-20T14:16:14.227Z,51.20
2019-04-20T14:18:42.914Z,51.30
2019-04-20T14:21:12.224Z,51.30
2019-04-20T14:23:41.116Z,51.30
2019-04-20T14:26:09.559Z,51.50
2019-04-20T14:28:38.770Z,51.30
2019-04-20T14:31:07.872Z,51.20
2019-04-20T14:33:36.973Z,51.30
2019-04-20T14:36:05.413Z,51.30
2019-04-20T14:38:34.019Z,51.30
2019-04-20T14:41:02.397Z,51.30
2019-04-20T14:43:32.898Z,51.30
2019-04-20T14:46:00.905Z,51.20
2019-04-20T14:48:30.969Z,51.30
2019-04-20T14:50:59.417Z,51.20
2019-04-20T14:53:27.737Z,51.30
2019-04-20T14:55:56.010Z,51.30
2019-04-20T14:58:42.176Z,51.30
2019-04-20T15:01:24.723Z,51.40
2019-04-20T15:04:00.198Z,51.30
2019-04-20T15:06:23.334Z,51.30
2019-04-20T15:08:52.587Z,51.40
2019-04-20T15:11:20.990Z,51.40
2019-04-20T15:13:49.306Z,51.40
2019-04-20T15:16:17.579Z,51.40
2019-04-20T15:18:49.119Z,51.40
2019-04-20T15:21:29.049Z,51.40
2019-04-20T15:23:57.826Z,51.40
2019-04-20T15:26:26.603Z,51.40
2019-04-20T15:28:55.041Z,51.50
2019-04-20T15:31:24.074Z,51.40
2019-04-20T15:33:52.813Z,51.40
2019-04-20T15:36:22.185Z,51.40
2019-04-20T15:38:51.350Z,51.40
2019-04-20T15:41:20.809Z,51.40
2019-04-20T15:43:49.243Z,51.40
2019-04-20T15:46:17.546Z,51.20
2019-04-20T15:48:46.173Z,51.00
2019-04-20T15:51:14.537Z,50.90
2019-04-20T15:53:43.908Z,50.90
2019-04-20T15:56:12.344Z,50.90
2019-04-20T15:58:40.741Z,51.30
2019-04-20T16:01:10.423Z,50.40
2019-04-20T16:03:41.283Z,49.80
2019-04-20T16:06:11.531Z,48.60
2019-04-20T16:08:41.938Z,48.40
2019-04-20T16:11:11.338Z,48.50
2019-04-20T16:13:44.035Z,48.70
2019-04-20T16:16:10.096Z,48.90
2019-04-20T16:18:39.183Z,49.00
2019-04-20T16:21:13.593Z,49.20
2019-04-20T16:23:48.540Z,49.50
2019-04-20T16:26:19.814Z,49.70
2019-04-20T16:28:48.252Z,50.10
2019-04-20T16:31:16.508Z,50.10
2019-04-20T16:33:44.774Z,50.20
2019-04-20T16:36:14.432Z,50.30
2019-04-20T16:38:45.604Z,50.40
2019-04-20T16:41:14.668Z,50.50
2019-04-20T16:43:45.058Z,51.00
2019-04-20T16:46:13.175Z,50.40
2019-04-20T16:48:42.132Z,50.50
2019-04-20T16:51:10.984Z,50.30
2019-04-20T16:53:39.651Z,50.40
2019-04-20T16:56:08.619Z,50.50
2019-04-20T16:58:37.882Z,50.80
2019-04-20T17:01:07.709Z,50.80
2019-04-20T17:03:48.896Z,50.80
2019-04-20T17:06:06.486Z,51.00
2019-04-20T17:08:34.835Z,51.00
2019-04-20T17:11:03.490Z,51.10
2019-04-20T17:13:40.571Z,51.30
2019-04-20T17:16:02.266Z,51.00
2019-04-20T17:18:31.842Z,50.80
2019-04-20T17:21:07.266Z,51.00
2019-04-20T17:23:31.119Z,50.80
2019-04-20T17:26:01.985Z,50.90
2019-04-20T17:28:35.247Z,50.90
2019-04-20T17:31:05.324Z,50.80
2019-04-20T17:33:49.544Z,50.90
2019-04-20T17:36:15.025Z,50.90
2019-04-20T17:38:45.984Z,50.90
2019-04-20T17:41:23.680Z,50.80
2019-04-20T17:43:57.582Z,51.50
2019-04-20T17:46:23.740Z,50.90
2019-04-20T17:48:58.798Z,51.00
2019-04-20T17:51:31.473Z,50.90
2019-04-20T17:53:49.148Z,49.10
2019-04-20T17:56:12.010Z,49.60
2019-04-20T17:58:41.344Z,50.00
2019-04-20T18:01:41.302Z,50.10
2019-04-20T18:04:44.250Z,50.10
2019-04-20T18:06:54.922Z,50.10
2019-04-20T18:09:38.685Z,50.10
2019-04-20T18:11:49.972Z,50.40
2019-04-20T18:14:32.795Z,50.80
2019-04-20T18:17:04.928Z,52.60
2019-04-20T18:19:22.228Z,51.70
2019-04-20T18:21:48.009Z,51.80
2019-04-20T18:24:38.732Z,51.20
2019-04-20T18:27:03.022Z,51.00
2019-04-20T18:29:37.310Z,50.60
2019-04-20T18:31:49.207Z,50.00
2019-04-20T18:34:34.589Z,51.20
2019-04-20T18:37:07.674Z,52.00
2019-04-20T18:39:40.917Z,51.70
2019-04-20T18:42:13.808Z,50.90
2019-04-20T18:44:54.624Z,50.90
2019-04-20T18:47:23.920Z,51.00
2019-04-20T18:49:41.946Z,52.30
2019-04-20T18:52:03.857Z,52.70
2019-04-20T18:54:38.884Z,51.80
2019-04-20T18:57:03.446Z,51.80
2019-04-20T18:59:40.589Z,51.10
2019-04-20T19:02:06.736Z,50.90
2019-04-20T19:04:33.153Z,51.40
2019-04-20T19:07:01.709Z,50.90
2019-04-20T19:09:31.659Z,51.80
2019-04-20T19:12:03.873Z,52.60
2019-04-20T19:14:48.851Z,52.10
2019-04-20T19:17:44.135Z,52.40
2019-04-20T19:20:01.386Z,52.80
2019-04-20T19:22:28.611Z,53.00
2019-04-20T19:24:57.988Z,53.30
2019-04-20T19:27:36.997Z,53.90
2019-04-20T19:30:11.780Z,53.80
2019-04-20T19:32:43.490Z,53.50
2019-04-20T19:35:04.575Z,53.80
2019-04-20T19:37:34.768Z,53.50
2019-04-20T19:40:08.125Z,54.30
2019-04-20T19:42:39.683Z,54.50
2019-04-20T19:45:25.100Z,54.00
2019-04-20T19:47:42.725Z,53.80
2019-04-20T19:50:25.252Z,53.60
2019-04-20T19:52:51.454Z,54.70
2019-04-20T19:55:14.345Z,55.40
2019-04-20T19:57:45.233Z,54.20
2019-04-20T19:59:58.188Z,53.90
2019-04-20T20:02:27.593Z,54.00
2019-04-20T20:05:01.615Z,53.90
2019-04-20T20:07:30.890Z,53.80
2019-04-20T20:10:00.483Z,53.90
2019-04-20T20:12:27.394Z,53.70
2019-04-20T20:14:57.280Z,53.60
2019-04-20T20:17:44.337Z,53.60
2019-04-20T20:20:23.331Z,53.50
2019-04-20T20:22:35.205Z,53.40
2019-04-20T20:24:56.807Z,53.40
2019-04-20T20:27:33.998Z,53.40
2019-04-20T20:30:08.136Z,53.30
2019-04-20T20:32:43.704Z,53.40
2019-04-20T20:35:05.610Z,53.30
2019-04-20T20:37:34.665Z,53.30
2019-04-20T20:40:07.848Z,53.40
2019-04-20T20:42:32.981Z,53.40
2019-04-20T20:45:09.641Z,53.40
2019-04-20T20:48:01.977Z,53.40
2019-04-20T20:50:33.180Z,53.40
2019-04-20T20:52:43.713Z,53.40
2019-04-20T20:55:06.983Z,53.00
2019-04-20T20:57:39.971Z,52.90
2019-04-20T21:00:03.711Z,55.40
2019-04-20T21:02:40.158Z,54.30
2019-04-20T21:04:57.663Z,53.80
2019-04-20T21:07:26.691Z,53.60
2019-04-20T21:09:56.156Z,53.50
2019-04-20T21:12:25.720Z,53.40
2019-04-20T21:14:55.223Z,53.40
2019-04-20T21:17:27.404Z,53.30
2019-04-20T21:20:14.423Z,53.10
2019-04-20T21:22:46.567Z,52.90
2019-04-20T21:24:55.285Z,53.20
2019-04-20T21:27:23.918Z,53.00
2019-04-20T21:29:56.190Z,53.10
2019-04-20T21:32:23.676Z,53.00
2019-04-20T21:35:00.023Z,53.10
2019-04-20T21:37:24.878Z,53.00
2019-04-20T21:39:57.978Z,53.00
2019-04-20T21:42:25.241Z,52.90
2019-04-20T21:44:57.675Z,52.80
2019-04-20T21:47:30.212Z,52.70
2019-04-20T21:50:05.783Z,52.80
2019-04-20T21:52:29.911Z,52.80
2019-04-20T21:54:52.211Z,52.70
2019-04-20T21:57:21.963Z,52.50
2019-04-20T21:59:53.773Z,52.50
2019-04-20T22:02:29.733Z,52.50
2019-04-20T22:04:51.591Z,52.50
2019-04-20T22:07:20.755Z,52.50
2019-04-20T22:09:53.119Z,52.40
2019-04-20T22:12:20.110Z,52.30
2019-04-20T22:14:57.936Z,52.40
2019-04-20T22:17:23.655Z,52.40
2019-04-20T22:20:02.650Z,52.30
2019-04-20T22:22:38.288Z,52.30
2019-04-20T22:25:02.688Z,52.40
2019-04-20T22:27:22.423Z,52.10
2019-04-20T22:29:48.535Z,52.00
2019-04-20T22:32:20.061Z,52.70
2019-04-20T22:34:55.977Z,51.90
2019-04-20T22:37:22.993Z,52.00
2019-04-20T22:39:52.879Z,51.90
2019-04-20T22:42:21.606Z,52.00
2019-04-20T22:44:57.547Z,52.00
2019-04-20T22:47:24.633Z,51.90
2019-04-20T22:50:09.621Z,51.90
2019-04-20T22:52:34.780Z,52.00
2019-04-20T22:55:12.823Z,51.90
2019-04-20T22:57:39.056Z,51.90
2019-04-20T23:00:00.618Z,52.00
2019-04-20T23:02:21.683Z,51.90
2019-04-20T23:04:50.785Z,51.80
2019-04-20T23:07:19.178Z,51.80
2019-04-20T23:09:52.884Z,51.90
2019-04-20T23:12:21.389Z,51.90
2019-04-20T23:14:47.411Z,51.90
2019-04-20T23:17:18.432Z,52.00
2019-04-20T23:19:50.960Z,51.90
2019-04-20T23:22:17.443Z,51.90
2019-04-20T23:24:46.721Z,51.90
2019-04-20T23:27:23.376Z,51.90
2019-04-20T23:29:46.859Z,52.00
2019-04-20T23:32:17.477Z,52.00
2019-04-20T23:34:50.002Z,51.90
2019-04-20T23:37:20.488Z,51.90
2019-04-20T23:39:47.719Z,51.80
2019-04-20T23:42:19.861Z,51.90
2019-04-20T23:44:54.218Z,51.90
2019-04-20T23:47:25.544Z,52.00
2019-04-20T23:50:12.356Z,52.40
2019-04-20T23:52:49.661Z,51.90
2019-04-20T23:55:02.031Z,52.00
2019-04-20T23:57:26.045Z,52.10
2019-04-20T23:59:55.022Z,52.10
